Time;durP1;ratioP1;P1;durP2;ratioP2;P2;SDS_P1;SDS_P2;PMS_P1;PMS_P2;Temp;Humidity;BMP_temperature;BMP_pressure;BME280_temperature;BME280_humidity;BME280_pressure;Samples;Min_cycle;Max_cycle;Signal;HPM_P1;HPM_P2
2022/07/25 07:47:03;;;;;;;5.82;1.60;;;21.00;91.00;;;;;;5089964;27;20768;-52
2022/07/25 07:49:29;;;;;;;7.13;1.77;;;21.00;90.80;;;;;;5078006;28;20076;-51
2022/07/25 07:52:02;;;;;;;7.57;2.08;;;21.00;91.00;;;;;;5070161;28;20408;-50
2022/07/25 07:57:14;;;;;;;6.40;1.60;;;21.40;90.80;;;;;;5069939;28;20048;-47
2022/07/25 07:59:41;;;;;;;6.05;1.40;;;21.50;90.70;;;;;;5070242;28;20076;-50
2022/07/25 08:02:08;;;;;;;4.78;1.63;;;21.60;90.20;;;;;;5071612;28;20060;-51
2022/07/25 08:04:34;;;;;;;8.45;1.90;;;21.60;89.50;;;;;;5069861;28;20377;-51
2022/07/25 08:07:01;;;;;;;8.07;1.73;;;21.60;89.30;;;;;;5068420;28;20074;-47
2022/07/25 08:09:28;;;;;;;5.38;1.55;;;21.70;89.50;;;;;;5066622;28;20041;-51
2022/07/25 08:11:55;;;;;;;7.18;1.65;;;21.80;88.80;;;;;;5063157;28;20037;-52
2022/07/25 08:14:22;;;;;;;5.03;1.35;;;21.70;89.00;;;;;;5069634;28;20095;-49
2022/07/25 08:16:51;;;;;;;4.43;1.30;;;21.70;88.90;;;;;;5069616;28;20115;-52
2022/07/25 08:19:18;;;;;;;8.00;1.30;;;21.70;88.40;;;;;;5068795;28;20053;-51
2022/07/25 08:21:45;;;;;;;4.28;1.33;;;21.70;88.00;;;;;;5068449;28;20041;-50
2022/07/25 08:24:12;;;;;;;5.65;1.52;;;21.60;88.00;;;;;;5069437;28;20037;-50
2022/07/25 08:26:39;;;;;;;7.03;1.50;;;21.60;88.00;;;;;;5069243;28;20061;-52
2022/07/25 08:29:06;;;;;;;7.82;1.52;;;21.70;88.60;;;;;;5066335;28;20068;-52
2022/07/25 08:31:55;;;;;;;6.85;1.58;;;21.90;88.40;;;;;;5065620;28;20084;-51
2022/07/25 08:34:22;;;;;;;5.75;1.60;;;22.00;87.80;;;;;;5069174;28;20037;-51
2022/07/25 08:36:49;;;;;;;4.47;1.30;;;22.00;87.90;;;;;;5067796;28;20059;-47
2022/07/25 08:39:16;;;;;;;6.07;1.30;;;22.20;86.00;;;;;;5070591;28;20492;-51
2022/07/25 08:41:42;;;;;;;6.47;1.05;;;22.20;85.50;;;;;;5068868;28;20044;-47
2022/07/25 08:44:09;;;;;;;5.10;1.30;;;22.40;84.60;;;;;;5068768;28;20068;-50
2022/07/25 08:46:36;;;;;;;3.42;1.15;;;22.40;84.10;;;;;;5073052;28;20056;-50
2022/07/25 08:49:03;;;;;;;3.75;0.98;;;22.20;84.50;;;;;;5067344;28;20127;-56
2022/07/25 08:51:29;;;;;;;4.72;1.00;;;22.20;85.90;;;;;;5065039;28;20052;-49
2022/07/25 08:53:56;;;;;;;3.80;1.17;;;22.10;85.00;;;;;;5065605;28;20044;-51
2022/07/25 08:56:23;;;;;;;6.95;1.25;;;22.10;85.30;;;;;;5064823;28;20551;-50
2022/07/25 08:58:52;;;;;;;4.82;1.35;;;22.00;85.60;;;;;;5053927;28;20053;-56
2022/07/25 09:01:19;;;;;;;4.72;1.13;;;21.90;86.20;;;;;;5055189;28;20045;-44
2022/07/25 09:03:46;;;;;;;5.10;1.40;;;21.90;86.40;;;;;;5055417;28;20057;-46
2022/07/25 09:06:12;;;;;;;4.70;1.30;;;22.00;85.40;;;;;;5053392;28;20438;-44
2022/07/25 09:08:39;;;;;;;4.15;1.20;;;22.00;85.00;;;;;;5056426;28;20029;-52
2022/07/25 09:11:06;;;;;;;4.22;1.25;;;22.10;85.10;;;;;;5059151;28;20040;-54
2022/07/25 09:13:37;;;;;;;6.13;1.20;;;22.00;84.80;;;;;;5055136;28;20037;-51
2022/07/25 09:16:04;;;;;;;3.67;1.17;;;22.00;84.80;;;;;;5055187;28;20041;-52
2022/07/25 09:18:32;;;;;;;6.63;1.67;;;21.80;85.30;;;;;;5054960;28;20069;-51
2022/07/25 09:20:59;;;;;;;10.93;1.83;;;21.80;86.10;;;;;;5055224;28;20041;-47
2022/07/25 09:23:26;;;;;;;5.68;1.40;;;21.70;86.40;;;;;;5054792;28;20082;-53
2022/07/25 09:25:52;;;;;;;6.75;1.60;;;21.60;86.80;;;;;;5054938;28;20049;-51
2022/07/25 09:28:19;;;;;;;4.10;1.23;;;21.60;86.50;;;;;;5060726;28;20044;-51
2022/07/25 09:30:46;;;;;;;5.18;1.20;;;21.70;86.10;;;;;;5055010;28;20093;-51
2022/07/25 09:33:13;;;;;;;7.78;1.05;;;21.60;85.90;;;;;;5055643;28;20045;-50
2022/07/25 09:35:40;;;;;;;5.10;1.10;;;21.50;85.60;;;;;;5054891;28;20530;-46
2022/07/25 09:38:06;;;;;;;3.58;1.08;;;21.60;86.20;;;;;;5054839;28;20376;-47
2022/07/25 09:40:33;;;;;;;5.63;1.05;;;21.50;85.30;;;;;;5056218;28;20033;-50
2022/07/25 09:43:00;;;;;;;6.72;1.63;;;21.40;85.90;;;;;;5054657;28;20067;-51
2022/07/25 09:45:27;;;;;;;6.07;1.10;;;21.40;86.50;;;;;;5054522;28;20045;-49
2022/07/25 09:47:57;;;;;;;6.35;1.10;;;21.50;86.30;;;;;;5053411;28;20040;-49
2022/07/25 09:50:23;;;;;;;5.10;1.30;;;21.70;86.10;;;;;;5054665;28;20076;-46
2022/07/25 09:52:50;;;;;;;7.18;1.20;;;22.00;85.40;;;;;;5054514;28;20041;-46
2022/07/25 09:55:18;;;;;;;5.95;1.23;;;22.20;85.00;;;;;;5054398;28;20045;-50
2022/07/25 09:57:45;;;;;;;4.53;1.50;;;22.30;83.70;;;;;;5057655;28;20060;-45
2022/07/25 10:00:12;;;;;;;6.22;1.92;;;22.30;83.50;;;;;;5054506;28;20041;-54
2022/07/25 10:02:44;;;;;;;5.22;1.50;;;22.10;83.90;;;;;;5054339;28;20045;-51
2022/07/25 10:05:12;;;;;;;5.90;1.20;;;22.10;84.30;;;;;;5054384;28;20080;-48
2022/07/25 10:07:39;;;;;;;4.50;1.20;;;22.00;83.80;;;;;;5054314;28;20045;-45
2022/07/25 10:10:05;;;;;;;5.20;1.02;;;22.00;84.60;;;;;;5057172;28;20045;-49
2022/07/25 10:12:32;;;;;;;4.07;1.20;;;22.30;84.10;;;;;;5056383;28;20040;-52
2022/07/25 10:14:59;;;;;;;8.32;1.75;;;22.50;83.90;;;;;;5053981;28;20071;-50
2022/07/25 10:17:26;;;;;;;7.50;1.30;;;22.70;83.60;;;;;;5053579;28;20049;-51
2022/07/25 10:19:53;;;;;;;4.22;0.90;;;22.80;83.10;;;;;;5053826;28;20511;-53
2022/07/25 10:22:24;;;;;;;3.05;1.30;;;22.90;82.30;;;;;;5053969;28;20041;-53
2022/07/25 10:25:12;;;;;;;5.15;1.02;;;23.10;82.10;;;;;;5054132;28;20040;-46
2022/07/25 10:27:38;;;;;;;3.25;0.95;;;23.20;80.70;;;;;;5053737;28;20045;-44
2022/07/25 10:30:05;;;;;;;5.63;1.55;;;23.20;81.30;;;;;;5053603;28;20487;-44
2022/07/25 10:32:34;;;;;;;3.50;0.70;;;23.30;80.60;;;;;;5053823;28;20053;-48
2022/07/25 10:35:01;;;;;;;5.45;0.95;;;23.40;80.80;;;;;;5053927;28;20044;-51
2022/07/25 10:37:28;;;;;;;2.95;0.98;;;23.50;79.40;;;;;;5054316;28;20475;-55
2022/07/25 10:39:55;;;;;;;4.80;0.70;;;23.60;79.60;;;;;;5060057;28;20045;-54
2022/07/25 10:42:22;;;;;;;3.47;0.70;;;23.50;79.50;;;;;;5053620;28;20102;-50
2022/07/25 10:44:48;;;;;;;3.42;0.93;;;23.40;78.60;;;;;;5053342;28;20044;-48
2022/07/25 10:47:15;;;;;;;5.57;0.98;;;23.40;79.10;;;;;;5053673;28;20081;-49
2022/07/25 10:49:42;;;;;;;2.00;0.77;;;23.60;78.60;;;;;;5052286;28;20049;-49
2022/07/25 10:52:29;;;;;;;5.40;0.95;;;23.80;78.50;;;;;;5053499;28;20102;-49
2022/07/25 10:54:55;;;;;;;2.00;0.60;;;24.00;77.90;;;;;;5053432;28;20076;-49
2022/07/25 10:57:22;;;;;;;3.22;0.70;;;24.00;76.30;;;;;;5053210;28;20049;-51
2022/07/25 10:59:55;;;;;;;6.47;0.95;;;24.00;76.70;;;;;;5053300;28;20044;-48
2022/07/25 11:02:21;;;;;;;3.03;0.75;;;24.00;77.20;;;;;;5053366;28;20461;-45
2022/07/25 11:04:48;;;;;;;5.95;1.00;;;24.20;77.70;;;;;;5051994;28;20408;-48
2022/07/25 11:07:16;;;;;;;3.47;0.63;;;24.40;76.80;;;;;;5053178;28;20068;-44
2022/07/25 11:09:43;;;;;;;3.17;0.93;;;24.50;76.40;;;;;;5054998;28;20049;-50
2022/07/25 11:12:10;;;;;;;3.83;0.80;;;24.50;75.80;;;;;;5052955;28;20487;-46
2022/07/25 11:14:36;;;;;;;2.22;0.60;;;24.60;76.10;;;;;;5052934;28;20044;-48
2022/07/25 11:17:03;;;;;;;7.40;0.75;;;24.70;76.10;;;;;;5053129;28;20071;-50
2022/07/25 11:19:30;;;;;;;3.15;0.73;;;24.70;74.80;;;;;;5052625;28;20048;-49
2022/07/25 11:21:57;;;;;;;3.25;0.60;;;24.70;76.00;;;;;;5052799;28;20135;-48
2022/07/25 11:24:23;;;;;;;2.78;0.60;;;24.60;75.70;;;;;;5052665;28;20037;-50
2022/07/25 11:26:50;;;;;;;2.53;0.60;;;24.40;75.30;;;;;;5052902;28;20084;-50
2022/07/25 11:29:17;;;;;;;3.65;0.68;;;24.40;76.30;;;;;;5052933;28;20067;-49
2022/07/25 11:31:44;;;;;;;2.30;0.70;;;24.30;76.30;;;;;;5053280;28;20049;-47
2022/07/25 11:34:10;;;;;;;1.42;0.60;;;24.20;76.20;;;;;;5052709;28;20044;-47
2022/07/25 11:36:37;;;;;;;2.38;0.70;;;24.20;76.20;;;;;;5052615;28;20095;-52
2022/07/25 11:39:04;;;;;;;3.80;0.80;;;24.10;77.00;;;;;;5057209;28;20503;-49
2022/07/25 11:41:31;;;;;;;3.97;1.70;;;24.10;77.70;;;;;;5052641;28;20086;-50
2022/07/25 11:43:58;;;;;;;4.28;1.40;;;24.00;77.60;;;;;;5051261;28;20047;-53
2022/07/25 11:46:24;;;;;;;7.05;1.63;;;23.70;85.10;;;;;;5052446;28;20126;-49
2022/07/25 11:48:53;;;;;;;6.70;1.40;;;23.30;89.80;;;;;;5052574;28;20452;-49
2022/07/25 11:51:20;;;;;;;2.60;0.90;;;22.80;90.20;;;;;;5050672;28;20447;-54
2022/07/25 11:53:46;;;;;;;2.42;0.70;;;22.20;89.50;;;;;;5050844;28;20059;-48
2022/07/25 11:56:13;;;;;;;3.65;1.10;;;21.80;90.80;;;;;;5054522;28;20132;-54
2022/07/25 11:59:00;;;;;;;4.80;1.10;;;21.50;90.80;;;;;;5048904;28;20033;-49
2022/07/25 12:01:27;;;;;;;6.25;0.90;;;21.40;91.00;;;;;;5053759;28;20484;-49
2022/07/25 12:03:53;;;;;;;3.53;1.40;;;21.40;91.00;;;;;;5055948;28;20476;-46
2022/07/25 12:06:20;;;;;;;4.13;1.00;;;21.50;90.70;;;;;;5052445;28;20037;-48
2022/07/25 13:01:59;;;;;;;3.38;0.70;;;21.60;87.90;;;;;;5077331;28;20363;-45
2022/07/25 13:04:26;;;;;;;3.00;0.98;;;22.40;87.00;;;;;;5069504;28;20047;-49
2022/07/25 13:06:53;;;;;;;2.97;0.70;;;22.70;85.70;;;;;;5047821;28;20444;-45
2022/07/25 13:09:20;;;;;;;2.72;0.80;;;22.90;86.50;;;;;;5043559;28;20485;-48
2022/07/25 13:11:48;;;;;;;3.78;0.70;;;23.20;85.90;;;;;;5025995;28;20061;-54
2022/07/25 13:14:15;;;;;;;2.83;1.10;;;23.30;85.30;;;;;;5057673;28;20037;-49
2022/07/25 13:16:41;;;;;;;2.30;0.65;;;23.30;81.90;;;;;;5043574;28;20513;-44
2022/07/25 13:19:08;;;;;;;2.67;0.68;;;23.50;81.10;;;;;;5049455;28;20037;-46
2022/07/25 13:21:36;;;;;;;2.22;0.52;;;23.50;81.50;;;;;;5049449;28;20071;-44
2022/07/25 13:24:03;;;;;;;3.15;0.82;;;23.60;79.50;;;;;;5049386;28;20045;-46
2022/07/25 13:26:29;;;;;;;2.85;0.50;;;23.60;80.00;;;;;;5049342;28;20041;-45
2022/07/25 13:28:56;;;;;;;2.05;0.60;;;23.80;81.60;;;;;;5049326;28;20041;-47
2022/07/25 13:31:25;;;;;;;2.10;0.70;;;23.90;81.10;;;;;;5049077;28;20120;-42
2022/07/25 13:33:52;;;;;;;4.22;0.57;;;23.80;81.20;;;;;;5044585;28;20144;-44
2022/07/25 13:36:19;;;;;;;1.80;0.60;;;23.70;78.80;;;;;;5048945;28;20061;-45
2022/07/25 13:38:46;;;;;;;3.22;0.60;;;23.60;80.30;;;;;;5049097;28;20047;-45
2022/07/25 13:41:13;;;;;;;1.70;0.60;;;23.70;80.00;;;;;;5048794;28;20447;-42
2022/07/25 13:43:42;;;;;;;1.15;0.50;;;23.80;80.00;;;;;;5048930;28;20408;-45
2022/07/25 13:46:08;;;;;;;1.73;0.60;;;23.90;78.80;;;;;;5048669;28;20041;-47
2022/07/25 13:48:35;;;;;;;1.95;0.60;;;24.00;79.30;;;;;;5047337;28;20037;-47
2022/07/25 13:51:02;;;;;;;1.77;0.70;;;24.10;78.80;;;;;;5048302;28;20096;-46
2022/07/25 13:53:29;;;;;;;2.05;0.60;;;24.00;76.70;;;;;;5048006;28;20045;-42
2022/07/25 13:55:57;;;;;;;2.25;0.50;;;24.10;77.00;;;;;;5048220;28;20458;-49
2022/07/25 13:58:23;;;;;;;3.03;0.50;;;24.30;75.90;;;;;;5048441;28;20046;-45
2022/07/25 14:00:50;;;;;;;2.30;0.60;;;24.40;76.80;;;;;;5047005;28;20441;-44
2022/07/25 14:03:17;;;;;;;2.08;0.70;;;24.60;75.70;;;;;;5034381;28;20041;-43
2022/07/25 14:05:44;;;;;;;2.03;0.52;;;24.70;75.30;;;;;;5035044;28;20037;-44
2022/07/25 14:08:10;;;;;;;1.50;0.60;;;24.80;75.40;;;;;;5034967;28;20038;-44
2022/07/25 14:10:37;;;;;;;3.03;0.60;;;24.90;75.40;;;;;;5034986;28;20071;-45
2022/07/25 14:13:04;;;;;;;5.03;0.90;;;25.00;75.60;;;;;;5034738;28;20041;-42
2022/07/25 14:15:30;;;;;;;4.78;0.70;;;25.20;75.60;;;;;;5030114;28;20567;-47
2022/07/25 14:17:57;;;;;;;2.72;0.80;;;25.20;75.20;;;;;;5035075;28;20550;-46
2022/07/25 14:20:24;;;;;;;2.58;0.65;;;25.20;75.00;;;;;;5030909;28;20112;-47
2022/07/25 14:22:51;;;;;;;1.88;0.60;;;25.20;74.70;;;;;;5033127;28;20033;-47
2022/07/25 14:25:18;;;;;;;1.98;0.60;;;25.20;75.60;;;;;;5033587;28;20516;-44
2022/07/25 14:27:45;;;;;;;4.50;1.00;;;25.20;75.20;;;;;;5034824;28;20037;-45
2022/07/25 14:30:11;;;;;;;2.70;0.80;;;25.20;74.70;;;;;;5034686;28;20489;-43
2022/07/25 14:32:38;;;;;;;3.30;0.90;;;25.10;74.20;;;;;;5021784;28;20490;-48
2022/07/25 14:35:05;;;;;;;2.08;0.85;;;24.90;74.10;;;;;;5034404;28;20096;-42
2022/07/25 14:37:32;;;;;;;4.20;0.82;;;24.90;75.40;;;;;;5034001;28;20345;-47
2022/07/25 14:39:58;;;;;;;2.88;0.70;;;24.90;75.00;;;;;;5031345;28;20479;-42
2022/07/25 14:42:25;;;;;;;2.47;0.70;;;25.00;74.70;;;;;;5034075;28;20159;-45
2022/07/25 14:44:52;;;;;;;2.35;0.68;;;25.10;74.00;;;;;;5033205;28;20034;-42
2022/07/25 14:47:19;;;;;;;4.95;0.88;;;25.20;73.60;;;;;;5034488;28;20071;-44
2022/07/25 14:49:46;;;;;;;5.05;1.00;;;25.10;72.60;;;;;;5034503;28;20040;-42
2022/07/25 14:52:14;;;;;;;4.63;1.25;;;24.90;72.10;;;;;;5032995;28;20128;-46
2022/07/25 14:54:40;;;;;;;1.70;0.70;;;24.70;72.30;;;;;;5034273;28;20096;-45
2022/07/25 14:57:07;;;;;;;2.10;0.60;;;24.70;73.00;;;;;;5034142;28;20042;-43
2022/07/25 14:59:34;;;;;;;2.65;0.90;;;24.70;73.00;;;;;;5033686;28;20042;-43
2022/07/25 15:02:01;;;;;;;4.43;0.85;;;24.50;73.00;;;;;;5033877;28;20049;-43
2022/07/25 15:04:28;;;;;;;4.32;0.77;;;24.60;73.90;;;;;;5033781;28;20084;-43
2022/07/25 15:06:54;;;;;;;2.35;0.90;;;24.70;73.30;;;;;;5029730;28;20056;-42
2022/07/25 15:09:21;;;;;;;3.55;0.80;;;24.90;73.40;;;;;;5034076;28;20103;-39
2022/07/25 15:11:48;;;;;;;2.92;0.90;;;25.00;73.10;;;;;;5034112;28;20041;-41
2022/07/25 15:14:15;;;;;;;5.43;0.80;;;24.70;72.60;;;;;;5032842;28;20100;-43
2022/07/25 15:16:42;;;;;;;5.95;0.90;;;24.50;73.30;;;;;;5033831;28;20565;-45
2022/07/25 15:19:09;;;;;;;3.97;0.77;;;24.60;73.60;;;;;;5032254;28;20045;-41
2022/07/25 15:21:43;;;;;;;;;;;24.80;73.50;;;;;;5034130;28;20037;-43
2022/07/25 15:24:10;;;;;;;3.67;0.90;;;24.90;73.40;;;;;;5032115;28;19959;-46
2022/07/25 15:26:37;;;;;;;3.88;1.00;;;24.80;72.70;;;;;;5032080;28;20052;-49
2022/07/25 15:29:04;;;;;;;3.53;0.75;;;24.90;73.20;;;;;;5033694;28;20045;-43
2022/07/25 15:31:31;;;;;;;3.65;1.00;;;24.90;72.80;;;;;;5033396;28;20045;-44
2022/07/25 15:33:58;;;;;;;6.47;0.90;;;24.70;72.70;;;;;;5033132;28;20051;-44
2022/07/25 15:36:25;;;;;;;4.50;0.88;;;24.50;73.60;;;;;;5033313;28;20053;-47
2022/07/25 15:39:05;;;;;;;3.85;0.98;;;24.40;73.80;;;;;;5028452;28;20045;-43
2022/07/25 15:41:32;;;;;;;4.65;0.80;;;24.40;73.90;;;;;;5031480;28;20041;-48
2022/07/25 15:43:59;;;;;;;5.05;0.95;;;24.30;74.30;;;;;;5029997;28;20497;-41
2022/07/25 15:46:27;;;;;;;3.78;0.98;;;24.30;75.10;;;;;;5032647;28;20037;-45
2022/07/25 15:48:56;;;;;;;4.78;1.02;;;24.10;74.50;;;;;;5031359;28;20096;-45
2022/07/25 15:51:23;;;;;;;6.55;1.23;;;24.00;74.40;;;;;;5031376;28;20087;-47
2022/07/25 15:53:50;;;;;;;4.07;0.90;;;24.00;75.00;;;;;;5028890;28;20072;-46
2022/07/25 15:56:17;;;;;;;7.05;1.10;;;23.90;74.90;;;;;;5030094;28;20038;-44
2022/07/25 15:58:43;;;;;;;4.75;1.10;;;24.00;75.30;;;;;;5031460;28;20513;-47
2022/07/25 16:01:10;;;;;;;3.80;1.20;;;23.90;75.20;;;;;;5030921;28;20466;-51
2022/07/25 16:03:37;;;;;;;5.70;1.13;;;24.00;75.70;;;;;;5027220;28;20042;-44
2022/07/25 16:06:06;;;;;;;3.78;1.30;;;24.20;75.50;;;;;;5024892;28;20041;-43
2022/07/25 16:08:33;;;;;;;3.15;0.90;;;24.20;75.80;;;;;;5031941;28;20408;-46
2022/07/25 16:11:00;;;;;;;6.28;1.20;;;24.50;75.90;;;;;;5030751;28;20088;-47
2022/07/25 16:13:28;;;;;;;2.58;1.00;;;24.50;75.20;;;;;;5028272;28;20038;-48
2022/07/25 16:15:55;;;;;;;3.28;1.13;;;24.60;75.10;;;;;;5027445;28;20060;-50
2022/07/25 16:18:22;;;;;;;2.28;0.82;;;24.60;74.60;;;;;;5031162;28;20050;-47
2022/07/25 16:20:48;;;;;;;2.55;1.00;;;24.50;75.00;;;;;;5032626;28;20049;-45
2022/07/25 16:23:15;;;;;;;3.25;0.82;;;24.60;74.80;;;;;;5030519;28;20065;-45
2022/07/25 16:25:42;;;;;;;3.38;1.00;;;24.60;74.40;;;;;;5031165;28;20044;-46
2022/07/25 16:28:09;;;;;;;4.03;0.80;;;24.60;74.70;;;;;;5031859;28;20735;-44
2022/07/25 16:30:35;;;;;;;2.08;0.90;;;24.70;74.80;;;;;;5032703;28;20041;-44
2022/07/25 16:33:02;;;;;;;5.93;1.10;;;24.80;74.70;;;;;;5032522;28;20505;-48
2022/07/25 16:35:29;;;;;;;2.58;0.98;;;24.80;74.60;;;;;;5032605;28;20435;-42
2022/07/25 16:37:56;;;;;;;4.95;1.00;;;24.70;74.20;;;;;;5032621;28;20041;-44
2022/07/25 16:40:23;;;;;;;3.47;1.10;;;24.60;74.50;;;;;;5032664;28;20155;-48
2022/07/25 16:42:58;;;;;;;1.75;0.80;;;24.50;74.50;;;;;;5032666;28;20045;-48
2022/07/25 16:45:24;;;;;;;3.08;0.93;;;24.40;74.80;;;;;;5031314;28;20091;-48
2022/07/25 16:47:51;;;;;;;6.20;0.95;;;24.40;74.70;;;;;;5031475;28;20042;-45
2022/07/25 16:50:18;;;;;;;4.13;1.00;;;24.40;74.60;;;;;;5032644;28;20072;-48
2022/07/25 16:52:45;;;;;;;3.42;1.15;;;24.30;74.80;;;;;;5029973;28;20049;-47
2022/07/25 16:55:11;;;;;;;2.65;0.90;;;24.10;75.00;;;;;;5026582;28;20037;-46
2022/07/25 16:57:38;;;;;;;4.63;1.02;;;24.10;75.70;;;;;;5021080;28;20034;-46
2022/07/25 17:00:06;;;;;;;2.95;0.93;;;24.00;75.70;;;;;;5029022;28;20053;-49
2022/07/25 17:02:33;;;;;;;6.53;1.60;;;23.80;76.50;;;;;;5031485;28;20053;-44
2022/07/25 17:05:00;;;;;;;4.20;1.20;;;23.70;77.50;;;;;;5032290;28;20096;-44
2022/07/25 17:07:26;;;;;;;3.78;1.08;;;23.60;77.40;;;;;;5032168;28;20160;-47
2022/07/25 17:09:53;;;;;;;2.55;0.93;;;23.60;77.40;;;;;;5030864;28;20073;-44
2022/07/25 17:12:20;;;;;;;2.88;1.05;;;23.60;77.20;;;;;;5028568;28;20049;-43
2022/07/25 17:14:47;;;;;;;4.78;1.10;;;23.60;77.10;;;;;;5032224;28;20398;-43
2022/07/25 17:17:13;;;;;;;4.13;1.00;;;23.70;76.90;;;;;;5031969;28;20045;-42
2022/07/25 17:19:40;;;;;;;2.88;1.27;;;23.70;76.90;;;;;;5032411;28;20045;-44
2022/07/25 17:22:07;;;;;;;3.55;0.90;;;23.80;76.70;;;;;;5032123;28;20048;-43
2022/07/25 17:24:33;;;;;;;2.78;1.13;;;23.80;76.60;;;;;;5032250;28;20069;-49
2022/07/25 17:27:00;;;;;;;4.30;0.90;;;23.80;76.50;;;;;;5032050;28;20040;-44
2022/07/25 17:29:27;;;;;;;4.80;1.00;;;23.80;76.30;;;;;;5032301;28;20095;-49
2022/07/25 17:31:54;;;;;;;3.78;1.00;;;23.70;77.40;;;;;;5032236;28;20103;-43
2022/07/25 17:34:21;;;;;;;3.28;1.10;;;23.70;77.20;;;;;;5032155;28;20099;-45
2022/07/25 17:36:47;;;;;;;3.42;1.02;;;23.70;77.60;;;;;;5033081;28;20049;-44
2022/07/25 17:39:14;;;;;;;2.38;1.10;;;23.70;77.40;;;;;;5035944;28;20069;-44
2022/07/25 17:41:41;;;;;;;2.58;1.05;;;23.60;77.30;;;;;;5035800;28;20552;-44
2022/07/25 17:44:08;;;;;;;2.88;1.17;;;23.50;77.70;;;;;;5035595;28;20046;-42
2022/07/25 17:46:37;;;;;;;2.45;1.13;;;23.50;77.80;;;;;;5035670;28;20429;-46
2022/07/25 17:49:04;;;;;;;2.38;1.00;;;23.40;78.30;;;;;;5035613;28;20045;-45
2022/07/25 17:51:31;;;;;;;4.55;1.10;;;23.30;78.80;;;;;;5035641;28;20057;-46
2022/07/25 17:53:58;;;;;;;2.25;0.93;;;23.10;79.20;;;;;;5033360;28;20042;-44
2022/07/25 17:56:24;;;;;;;2.67;1.10;;;23.10;79.50;;;;;;5035494;28;20052;-45
2022/07/25 17:58:51;;;;;;;2.20;1.10;;;23.10;79.60;;;;;;5034997;28;20060;-46
2022/07/25 18:01:18;;;;;;;3.63;1.00;;;23.10;79.80;;;;;;5035351;28;20391;-42
2022/07/25 18:03:46;;;;;;;5.63;1.27;;;23.00;80.10;;;;;;5035113;28;20048;-49
2022/07/25 18:06:13;;;;;;;4.55;1.10;;;22.90;80.20;;;;;;5035193;28;20061;-46
2022/07/25 18:08:40;;;;;;;3.85;1.30;;;23.00;80.20;;;;;;5035466;28;20042;-45
2022/07/25 18:11:07;;;;;;;3.97;1.10;;;22.90;81.00;;;;;;5035425;28;20045;-44
2022/07/25 18:13:34;;;;;;;2.45;1.00;;;22.90;81.70;;;;;;5034370;28;20041;-45
2022/07/25 18:16:00;;;;;;;4.53;1.20;;;22.80;81.80;;;;;;5033901;28;20041;-46
2022/07/25 18:18:28;;;;;;;3.15;1.00;;;22.70;81.00;;;;;;5035104;28;20536;-48
2022/07/25 18:20:54;;;;;;;3.20;1.00;;;22.70;80.60;;;;;;5016823;28;20088;-46
2022/07/25 18:23:23;;;;;;;5.82;1.02;;;22.50;80.60;;;;;;5035033;28;20041;-44
2022/07/25 18:25:50;;;;;;;3.90;0.70;;;22.40;76.40;;;;;;5034993;28;20041;-47
2022/07/25 18:28:17;;;;;;;1.60;0.70;;;22.30;75.10;;;;;;5035072;28;20037;-45
2022/07/25 18:30:44;;;;;;;4.45;0.60;;;22.20;74.80;;;;;;5035006;28;20451;-46
2022/07/25 18:33:11;;;;;;;3.17;0.70;;;22.20;75.10;;;;;;5033753;28;20034;-44
2022/07/25 18:35:37;;;;;;;3.85;0.73;;;22.20;75.70;;;;;;5034321;28;20091;-42
2022/07/25 18:38:04;;;;;;;1.98;0.77;;;22.20;75.80;;;;;;5034800;28;20068;-44
2022/07/25 18:40:31;;;;;;;2.08;0.68;;;22.20;75.70;;;;;;5034201;28;20060;-46
2022/07/25 18:42:58;;;;;;;2.53;0.70;;;22.10;76.40;;;;;;5033353;28;20041;-42
2022/07/25 18:45:24;;;;;;;1.20;0.60;;;22.10;76.80;;;;;;5034577;28;20543;-43
2022/07/25 18:47:52;;;;;;;4.82;0.95;;;22.20;77.10;;;;;;5034509;28;20037;-43
2022/07/25 18:50:19;;;;;;;1.85;0.77;;;22.10;77.40;;;;;;5033714;28;20052;-43
2022/07/25 18:52:45;;;;;;;3.47;0.88;;;22.20;77.90;;;;;;5033752;28;20081;-44
2022/07/25 18:55:12;;;;;;;3.17;1.00;;;22.00;78.40;;;;;;5034379;28;20494;-43
2022/07/25 18:57:39;;;;;;;2.80;0.90;;;22.00;78.90;;;;;;5030888;28;20045;-47
2022/07/25 19:00:06;;;;;;;2.97;0.77;;;22.00;79.30;;;;;;5027259;28;20073;-45
2022/07/25 19:02:33;;;;;;;1.63;0.88;;;22.00;79.60;;;;;;5027757;28;20445;-50
2022/07/25 19:05:00;;;;;;;2.28;0.82;;;22.00;79.80;;;;;;5033330;28;20437;-49
2022/07/25 19:07:28;;;;;;;1.45;0.80;;;22.00;80.00;;;;;;5034140;28;20092;-43
2022/07/25 19:09:55;;;;;;;4.18;1.10;;;22.00;79.90;;;;;;5034105;28;20034;-48
2022/07/25 19:12:25;;;;;;;6.22;0.88;;;22.00;80.20;;;;;;5033782;28;20038;-45
2022/07/25 19:14:52;;;;;;;1.90;0.90;;;22.00;80.20;;;;;;5032956;28;20461;-45
2022/07/25 19:17:18;;;;;;;2.05;1.00;;;22.00;80.00;;;;;;5032133;28;20486;-45
2022/07/25 19:19:45;;;;;;;1.70;0.80;;;21.90;80.00;;;;;;5034104;28;20065;-47
2022/07/25 19:22:12;;;;;;;3.30;0.98;;;21.90;80.00;;;;;;5033962;28;20128;-44
2022/07/25 19:24:38;;;;;;;1.80;0.98;;;21.90;80.50;;;;;;5033845;28;20050;-43
2022/07/25 19:27:05;;;;;;;3.58;1.00;;;21.90;80.60;;;;;;5033039;28;20068;-47
2022/07/25 19:29:32;;;;;;;3.33;1.23;;;21.90;80.60;;;;;;5033910;28;20041;-47
2022/07/25 19:31:59;;;;;;;1.85;1.00;;;21.80;80.80;;;;;;5033037;28;20087;-45
2022/07/25 19:34:26;;;;;;;2.70;1.15;;;21.80;80.80;;;;;;5033606;28;20379;-49
2022/07/25 19:36:54;;;;;;;3.35;1.00;;;21.80;80.70;;;;;;5033554;28;20045;-48
2022/07/25 19:39:21;;;;;;;2.63;1.02;;;21.80;81.00;;;;;;5033646;28;20417;-48
2022/07/25 19:41:48;;;;;;;2.90;0.82;;;21.80;81.10;;;;;;5033457;28;20037;-46
2022/07/25 19:44:14;;;;;;;2.50;0.90;;;21.80;80.90;;;;;;5033350;28;20091;-45
2022/07/25 19:46:41;;;;;;;2.83;0.75;;;21.80;80.70;;;;;;5033512;28;20042;-45
2022/07/25 19:49:08;;;;;;;3.63;0.90;;;21.70;80.80;;;;;;5033385;28;20044;-47
2022/07/25 19:51:35;;;;;;;2.15;0.80;;;21.70;80.60;;;;;;5033426;28;20393;-45
2022/07/25 19:54:02;;;;;;;2.65;1.00;;;21.70;80.40;;;;;;5033238;28;20053;-48
2022/07/25 19:56:29;;;;;;;1.55;0.70;;;21.70;80.30;;;;;;5033276;28;20049;-51
2022/07/25 19:58:55;;;;;;;5.07;0.82;;;21.70;80.10;;;;;;5032868;28;20045;-47
2022/07/25 20:01:22;;;;;;;2.92;0.68;;;21.70;79.20;;;;;;5031693;28;20125;-49
2022/07/25 20:03:49;;;;;;;2.08;0.65;;;21.60;79.30;;;;;;5029910;28;20525;-49
2022/07/25 20:06:19;;;;;;;2.58;0.88;;;21.60;80.10;;;;;;5029421;28;20088;-44
2022/07/25 20:08:46;;;;;;;1.30;0.70;;;21.50;79.50;;;;;;5031861;28;20497;-47
2022/07/25 20:11:12;;;;;;;3.22;0.77;;;21.40;79.40;;;;;;5032213;28;20455;-51
2022/07/25 20:13:39;;;;;;;3.22;0.70;;;21.30;79.60;;;;;;5027321;28;20033;-46
2022/07/25 20:16:08;;;;;;;1.40;0.75;;;21.20;79.90;;;;;;5011057;28;20030;-47
2022/07/25 20:18:35;;;;;;;2.00;0.70;;;21.10;80.10;;;;;;5029507;28;20052;-47
2022/07/25 20:21:02;;;;;;;3.10;0.82;;;21.10;80.40;;;;;;5026931;28;20065;-45
2022/07/25 20:23:29;;;;;;;2.05;0.75;;;21.00;80.70;;;;;;5031041;28;20042;-45
2022/07/25 20:25:56;;;;;;;3.10;0.80;;;20.90;81.20;;;;;;5031402;28;20091;-50
2022/07/25 20:28:22;;;;;;;3.40;0.90;;;20.80;81.40;;;;;;5032277;28;20041;-46
2022/07/25 20:30:49;;;;;;;2.70;0.80;;;20.80;81.50;;;;;;5031464;28;20390;-43
2022/07/25 20:33:17;;;;;;;2.28;0.88;;;20.80;81.80;;;;;;5030160;28;20095;-47
2022/07/25 20:35:44;;;;;;;3.13;0.77;;;20.80;81.90;;;;;;5029919;28;20061;-48
2022/07/25 20:38:10;;;;;;;4.45;0.90;;;20.70;81.90;;;;;;5032211;28;20111;-44
2022/07/25 20:40:38;;;;;;;1.77;0.70;;;20.80;81.90;;;;;;5031419;28;20037;-48
2022/07/25 20:43:09;;;;;;;1.50;0.80;;;20.80;81.90;;;;;;5029876;28;20379;-49
2022/07/25 20:45:36;;;;;;;1.50;0.70;;;20.90;81.90;;;;;;5029025;28;20083;-49
2022/07/25 20:48:03;;;;;;;3.85;0.70;;;20.90;81.90;;;;;;5030519;28;20069;-50
2022/07/25 20:50:29;;;;;;;3.20;0.70;;;20.90;81.80;;;;;;5028483;28;20458;-51
2022/07/25 20:52:56;;;;;;;2.20;0.80;;;20.90;82.00;;;;;;5031210;28;20049;-50
2022/07/25 20:55:23;;;;;;;4.32;0.80;;;20.90;82.10;;;;;;5031263;28;20045;-50
2022/07/25 20:57:49;;;;;;;2.63;1.10;;;20.90;82.10;;;;;;5031533;28;20060;-51
2022/07/25 21:00:16;;;;;;;3.13;0.80;;;20.90;82.40;;;;;;5029577;28;20045;-47
2022/07/25 21:02:43;;;;;;;1.98;0.80;;;20.80;83.20;;;;;;5029816;28;20044;-48
2022/07/25 21:05:10;;;;;;;3.63;0.80;;;20.70;84.00;;;;;;5027418;28;20057;-45
2022/07/25 21:07:37;;;;;;;2.05;0.90;;;20.70;84.60;;;;;;5027317;28;20030;-49
2022/07/25 21:10:04;;;;;;;2.58;0.80;;;20.60;85.00;;;;;;5030039;28;20445;-47
2022/07/25 21:12:30;;;;;;;1.65;0.80;;;20.50;85.40;;;;;;5034057;28;20053;-49
2022/07/25 21:14:59;;;;;;;5.10;1.00;;;20.50;85.70;;;;;;5033699;28;20501;-47
2022/07/25 21:17:26;;;;;;;2.42;1.10;;;20.40;86.10;;;;;;5035661;28;20038;-42
2022/07/25 21:19:53;;;;;;;4.03;0.90;;;20.50;86.20;;;;;;5029225;28;20107;-46
2022/07/25 21:22:20;;;;;;;2.20;1.30;;;20.40;86.40;;;;;;5033481;28;20037;-43
2022/07/25 21:24:48;;;;;;;2.10;1.08;;;20.40;86.30;;;;;;5033432;28;20073;-43
2022/07/25 21:27:15;;;;;;;3.42;1.27;;;20.40;86.30;;;;;;5033314;28;20461;-44
2022/07/25 21:29:41;;;;;;;4.70;1.08;;;20.40;86.40;;;;;;5035996;28;20095;-50